Snow/Ice From: 13-12-2017 21:00 Until: 14-12-2017 06:00 warning for: Snow/Ice Level: Yellow info button
čeština:
Pravděpodobná tvorba ledovky při mrznoucím dešti. Nebezpečí úrazů při uklouznutí. Problémy v dopravě, zvýšená nehodovost. Při pohybu venku je třeba chodit velmi opatrně, starší nebo méně mobilní lidé by měli omezit vycházení ven. Řidičům se doporučuje sledovat dopravní zpravodajství a jezdit velmi opatrně. Počítat s prodloužením doby jízdy.

english:
Glaze and black ice formation during freezing rain is probable. Drivers and pedestrians should pay more attention during their activities. 


Karlovy Vary SW more information Karlovy Vary SW


Karlovy Vary ESE more information Karlovy Vary ESE


Thunder radar more information blitzortung!


Rain radar more information rain snow radar


Visit our other weather sites:

Template documentation
and downloads

My WDL Site

WX

iWDL

MeteoWare Live



Nearby METAR Reports

  
LKKV - Karlovy Vary, Czech Republic
Distance from station: ESE 6km
Updated: 13.12.2017 23:00
Light Snow, Overcast
Light Snow, Overcast  
 Wind from S
Wind: S 9 km/h
Temperature:  0°C
Wind Chill:  -3°C
Dew Point:  -2°C
Humidity:  87%
Barometer:  997 hPa
Summary:  Light Snow
Clouds:  Overcast
Visibility:  10 km
Cloud details:  Mostly Cloudy 274 m
Overcast 396 m
2017/12/13 22:00 LKKV 132200Z 19005KT 140V250 9999 -SN BKN009 OVC013 M00/M02 Q0997 R29///////
LKLN - Plzeň, Czech Republic
Distance from station: SSE 68km
Updated: 13.12.2017 23:02
Overcast
Overcast  
 Wind from SSW
Wind: SSW 24 km/h
Temperature:  2°C
Wind Chill:  -3°C
Dew Point:  0°C
Humidity:  87%
Barometer:  1000 hPa
Clouds:  Overcast
Visibility:  10 km
Cloud details:  Mostly Cloudy 427 m
Overcast 640 m
2017/12/13 22:02 LKLN 132202Z AUTO 21013KT 9999 BKN014 OVC021 02/M00 Q1000
EDAC - Altenburg-Nobitz, Germany
Distance from station: NNW 87km
Updated: 08.12.2017 17:50
NOT Current
Partly Cloudy
Partly Cloudy  
 Wind from SSW
Wind: SSW 17 km/h
Temperature:  3°C
Wind Chill:  -1°C
Dew Point:  -2°C
Humidity:  70%
Barometer:  1006 hPa
Clouds:  Partly Cloudy
Visibility:  10 km
Cloud details:  Partly Cloudy 762 m
2017/12/08 16:50 EDAC 081650Z 20009KT 9999 SCT025 03/M02 Q1006
ETIC - Grafenwöhr, Germany
Distance from station: SW 88km
Updated: 13.12.2017 23:26
Overcast
Overcast  
 Wind from SE
Wind: SE 9 km/h
Temperature:  1°C
Wind Chill:  -2°C
Dew Point:  0°C
Humidity:  93%
Barometer:  997.3 hPa
Clouds:  Overcast
Visibility:  10 km
Cloud details:  Mostly Cloudy 305 m
Overcast 488 m
2017/12/13 22:26 ETIC 132226Z AUTO 13005KT 9999 BKN010 OVC016 01/00 A2945 RMK AO2 CIG 010V016 BKN V SCT SLP993 $
LKPR - Prague/Ruzyne, Czech Republic
Distance from station: E 103km
Updated: 13.12.2017 23:00
Few Clouds
Few Clouds  
 Wind from S
Wind: S 22 km/h
Temperature:  2°C
Wind Chill:  -3°C
Dew Point:  -5°C
Humidity:  60%
Barometer:  999 hPa
Clouds:  Few Clouds
Visibility:  10 km
Cloud details:  Few Clouds 1463 m
2017/12/13 22:00 LKPR 132200Z 18012KT 9999 FEW048 02/M05 Q0999 NOSIG
EDQM - Hof, Germany
Distance from station: W 71km
Updated: 13.12.2017 19:50
NOT Current
Snow, Overcast
Snow, Overcast  
 Wind from S
Wind: S 30 km/h
Temperature:  -1°C
Wind Chill:  -8°C
Dew Point:  -2°C
Humidity:  93%
Barometer:  1000 hPa
Summary:  Snow
Clouds:  Overcast
Visibility:  2 km
Cloud details:  Overcast 274 m
2017/12/13 18:50 EDQM 131850Z 19016KT 1700 R26/P2000N SN OVC009 M01/M02 Q1000

Script developed by  Saratoga-weather.org Adapted for the template by  Weerstation Leuven

Equipment we use:


Weather-station
TFA Nexus

Weather-program
Meteohub

Weather-server
SilverStone DC01

Provider
WIA

TFA Nexus

Meteohub

SilverStone DC01

WIA